sensor_id;sensor_type;location;lat;lon;timestamp;P1;durP1;ratioP1;P2;durP2;ratioP2
64595;SDS011;51003;51.628;6.670;2023-07-31T00:00:27;2.07;;;1.70;;
64595;SDS011;51003;51.628;6.670;2023-07-31T00:02:54;2.10;;;1.73;;
64595;SDS011;51003;51.628;6.670;2023-07-31T00:05:19;2.63;;;2.27;;
64595;SDS011;51003;51.628;6.670;2023-07-31T00:07:44;2.90;;;2.43;;
64595;SDS011;51003;51.628;6.670;2023-07-31T00:10:10;3.60;;;2.60;;
64595;SDS011;51003;51.628;6.670;2023-07-31T00:12:37;5.83;;;2.97;;
64595;SDS011;51003;51.628;6.670;2023-07-31T00:15:03;4.03;;;2.93;;
64595;SDS011;51003;51.628;6.670;2023-07-31T00:17:29;6.50;;;3.13;;
64595;SDS011;51003;51.628;6.670;2023-07-31T00:19:55;8.83;;;3.40;;
64595;SDS011;51003;51.628;6.670;2023-07-31T00:22:20;4.07;;;3.17;;
64595;SDS011;51003;51.628;6.670;2023-07-31T00:24:46;7.87;;;3.60;;
64595;SDS011;51003;51.628;6.670;2023-07-31T00:27:11;12.00;;;4.23;;
64595;SDS011;51003;51.628;6.670;2023-07-31T00:29:36;5.60;;;3.93;;
64595;SDS011;51003;51.628;6.670;2023-07-31T00:32:02;9.13;;;4.63;;
64595;SDS011;51003;51.628;6.670;2023-07-31T00:34:28;7.23;;;4.33;;
64595;SDS011;51003;51.628;6.670;2023-07-31T00:36:54;9.40;;;4.40;;
64595;SDS011;51003;51.628;6.670;2023-07-31T00:39:20;15.93;;;6.13;;
64595;SDS011;51003;51.628;6.670;2023-07-31T00:41:45;12.60;;;5.43;;
64595;SDS011;51003;51.628;6.670;2023-07-31T00:44:10;12.00;;;5.53;;
64595;SDS011;51003;51.628;6.670;2023-07-31T00:46:36;13.27;;;5.23;;
64595;SDS011;51003;51.628;6.670;2023-07-31T00:49:01;18.17;;;6.10;;
64595;SDS011;51003;51.628;6.670;2023-07-31T00:51:27;10.87;;;5.30;;
64595;SDS011;51003;51.628;6.670;2023-07-31T00:53:52;15.03;;;6.37;;
64595;SDS011;51003;51.628;6.670;2023-07-31T00:56:19;15.10;;;5.90;;
64595;SDS011;51003;51.628;6.670;2023-07-31T00:58:44;11.00;;;5.00;;
64595;SDS011;51003;51.628;6.670;2023-07-31T01:01:10;20.00;;;6.27;;
64595;SDS011;51003;51.628;6.670;2023-07-31T01:03:35;13.03;;;5.60;;
64595;SDS011;51003;51.628;6.670;2023-07-31T01:08:33;12.20;;;5.27;;
64595;SDS011;51003;51.628;6.670;2023-07-31T01:11:07;12.90;;;5.70;;
64595;SDS011;51003;51.628;6.670;2023-07-31T01:13:55;16.23;;;5.37;;
64595;SDS011;51003;51.628;6.670;2023-07-31T01:16:21;10.30;;;4.90;;
64595;SDS011;51003;51.628;6.670;2023-07-31T01:18:47;8.33;;;5.03;;
64595;SDS011;51003;51.628;6.670;2023-07-31T01:26:44;12.53;;;4.90;;
64595;SDS011;51003;51.628;6.670;2023-07-31T01:32:02;10.00;;;4.40;;
64595;SDS011;51003;51.628;6.670;2023-07-31T01:34:29;13.10;;;5.10;;
64595;SDS011;51003;51.628;6.670;2023-07-31T01:36:55;17.47;;;5.30;;
64595;SDS011;51003;51.628;6.670;2023-07-31T01:39:21;10.20;;;4.50;;
64595;SDS011;51003;51.628;6.670;2023-07-31T01:41:47;15.70;;;4.13;;
64595;SDS011;51003;51.628;6.670;2023-07-31T01:44:12;12.27;;;4.57;;
64595;SDS011;51003;51.628;6.670;2023-07-31T01:46:38;12.37;;;4.30;;
64595;SDS011;51003;51.628;6.670;2023-07-31T01:49:03;11.23;;;3.87;;
64595;SDS011;51003;51.628;6.670;2023-07-31T01:51:30;7.70;;;3.83;;
64595;SDS011;51003;51.628;6.670;2023-07-31T01:53:59;11.20;;;4.60;;
64595;SDS011;51003;51.628;6.670;2023-07-31T01:56:24;8.60;;;3.83;;
64595;SDS011;51003;51.628;6.670;2023-07-31T01:58:50;10.60;;;4.37;;
64595;SDS011;51003;51.628;6.670;2023-07-31T02:01:15;8.40;;;4.10;;
64595;SDS011;51003;51.628;6.670;2023-07-31T02:03:41;7.50;;;3.60;;
64595;SDS011;51003;51.628;6.670;2023-07-31T02:06:07;9.20;;;3.93;;
64595;SDS011;51003;51.628;6.670;2023-07-31T02:08:32;8.37;;;4.23;;
64595;SDS011;51003;51.628;6.670;2023-07-31T02:10:57;9.13;;;3.60;;
64595;SDS011;51003;51.628;6.670;2023-07-31T02:13:23;8.70;;;3.77;;
64595;SDS011;51003;51.628;6.670;2023-07-31T02:15:49;6.10;;;3.37;;
64595;SDS011;51003;51.628;6.670;2023-07-31T02:18:15;11.57;;;4.20;;
64595;SDS011;51003;51.628;6.670;2023-07-31T02:20:40;11.50;;;3.93;;
64595;SDS011;51003;51.628;6.670;2023-07-31T02:23:06;10.37;;;3.83;;
64595;SDS011;51003;51.628;6.670;2023-07-31T02:25:32;7.67;;;4.00;;
64595;SDS011;51003;51.628;6.670;2023-07-31T02:27:57;15.30;;;3.80;;
64595;SDS011;51003;51.628;6.670;2023-07-31T02:30:23;8.97;;;4.00;;
64595;SDS011;51003;51.628;6.670;2023-07-31T02:32:49;9.77;;;4.10;;
64595;SDS011;51003;51.628;6.670;2023-07-31T02:35:14;6.07;;;3.70;;
64595;SDS011;51003;51.628;6.670;2023-07-31T02:37:41;6.57;;;3.70;;
64595;SDS011;51003;51.628;6.670;2023-07-31T02:40:07;7.30;;;3.10;;
64595;SDS011;51003;51.628;6.670;2023-07-31T02:42:33;8.00;;;3.70;;
64595;SDS011;51003;51.628;6.670;2023-07-31T02:44:59;8.73;;;4.00;;
64595;SDS011;51003;51.628;6.670;2023-07-31T02:47:24;13.53;;;4.10;;
64595;SDS011;51003;51.628;6.670;2023-07-31T02:49:50;17.77;;;3.73;;
64595;SDS011;51003;51.628;6.670;2023-07-31T02:52:16;9.77;;;4.60;;
64595;SDS011;51003;51.628;6.670;2023-07-31T02:54:41;10.33;;;4.20;;
64595;SDS011;51003;51.628;6.670;2023-07-31T02:57:07;10.27;;;4.53;;
64595;SDS011;51003;51.628;6.670;2023-07-31T02:59:33;11.30;;;3.63;;
64595;SDS011;51003;51.628;6.670;2023-07-31T03:01:58;8.10;;;3.90;;
64595;SDS011;51003;51.628;6.670;2023-07-31T03:04:24;8.50;;;3.60;;
64595;SDS011;51003;51.628;6.670;2023-07-31T03:06:50;11.17;;;3.90;;
64595;SDS011;51003;51.628;6.670;2023-07-31T03:09:15;11.83;;;4.00;;
64595;SDS011;51003;51.628;6.670;2023-07-31T03:11:41;7.87;;;3.70;;
64595;SDS011;51003;51.628;6.670;2023-07-31T03:14:06;15.93;;;4.30;;
64595;SDS011;51003;51.628;6.670;2023-07-31T03:16:32;9.40;;;3.90;;
64595;SDS011;51003;51.628;6.670;2023-07-31T03:18:58;19.90;;;3.80;;
64595;SDS011;51003;51.628;6.670;2023-07-31T03:21:23;11.30;;;4.30;;
64595;SDS011;51003;51.628;6.670;2023-07-31T03:23:49;8.60;;;3.70;;
64595;SDS011;51003;51.628;6.670;2023-07-31T03:26:15;7.93;;;4.03;;
64595;SDS011;51003;51.628;6.670;2023-07-31T03:28:41;8.80;;;3.63;;
64595;SDS011;51003;51.628;6.670;2023-07-31T03:31:06;13.43;;;4.50;;
64595;SDS011;51003;51.628;6.670;2023-07-31T03:33:33;9.87;;;3.90;;
64595;SDS011;51003;51.628;6.670;2023-07-31T03:35:59;10.10;;;3.67;;
64595;SDS011;51003;51.628;6.670;2023-07-31T03:38:25;9.70;;;3.80;;
64595;SDS011;51003;51.628;6.670;2023-07-31T03:40:51;16.37;;;4.37;;
64595;SDS011;51003;51.628;6.670;2023-07-31T03:43:16;7.97;;;4.10;;
64595;SDS011;51003;51.628;6.670;2023-07-31T03:45:42;10.60;;;4.07;;
64595;SDS011;51003;51.628;6.670;2023-07-31T03:48:08;7.77;;;3.73;;
64595;SDS011;51003;51.628;6.670;2023-07-31T03:50:34;10.70;;;4.20;;
64595;SDS011;51003;51.628;6.670;2023-07-31T03:53:00;10.27;;;4.23;;
64595;SDS011;51003;51.628;6.670;2023-07-31T03:55:26;9.87;;;4.30;;
64595;SDS011;51003;51.628;6.670;2023-07-31T03:57:51;8.30;;;3.90;;
64595;SDS011;51003;51.628;6.670;2023-07-31T04:00:17;11.33;;;3.67;;
64595;SDS011;51003;51.628;6.670;2023-07-31T04:02:43;10.07;;;4.43;;
64595;SDS011;51003;51.628;6.670;2023-07-31T04:05:08;12.67;;;4.57;;
64595;SDS011;51003;51.628;6.670;2023-07-31T04:07:35;11.10;;;4.20;;
64595;SDS011;51003;51.628;6.670;2023-07-31T04:10:03;7.50;;;3.90;;
64595;SDS011;51003;51.628;6.670;2023-07-31T04:12:29;8.03;;;4.10;;
64595;SDS011;51003;51.628;6.670;2023-07-31T04:14:54;11.03;;;4.30;;
64595;SDS011;51003;51.628;6.670;2023-07-31T04:17:20;19.10;;;4.37;;
64595;SDS011;51003;51.628;6.670;2023-07-31T04:19:46;14.23;;;4.77;;
64595;SDS011;51003;51.628;6.670;2023-07-31T04:22:12;8.03;;;3.90;;
64595;SDS011;51003;51.628;6.670;2023-07-31T04:24:38;14.63;;;4.90;;
64595;SDS011;51003;51.628;6.670;2023-07-31T04:27:04;11.67;;;3.87;;
64595;SDS011;51003;51.628;6.670;2023-07-31T04:29:30;12.77;;;4.00;;
64595;SDS011;51003;51.628;6.670;2023-07-31T04:31:55;12.03;;;4.17;;
64595;SDS011;51003;51.628;6.670;2023-07-31T04:34:21;9.10;;;3.90;;
64595;SDS011;51003;51.628;6.670;2023-07-31T04:36:47;14.73;;;4.67;;
64595;SDS011;51003;51.628;6.670;2023-07-31T04:39:13;10.53;;;4.17;;
64595;SDS011;51003;51.628;6.670;2023-07-31T04:41:38;9.60;;;4.00;;
64595;SDS011;51003;51.628;6.670;2023-07-31T04:44:04;8.67;;;4.07;;
64595;SDS011;51003;51.628;6.670;2023-07-31T04:46:30;7.67;;;3.97;;
64595;SDS011;51003;51.628;6.670;2023-07-31T04:48:56;7.73;;;4.30;;
64595;SDS011;51003;51.628;6.670;2023-07-31T04:51:22;5.60;;;4.00;;
64595;SDS011;51003;51.628;6.670;2023-07-31T04:53:48;15.37;;;5.37;;
64595;SDS011;51003;51.628;6.670;2023-07-31T04:56:14;12.40;;;4.10;;
64595;SDS011;51003;51.628;6.670;2023-07-31T04:58:40;11.97;;;5.33;;
64595;SDS011;51003;51.628;6.670;2023-07-31T05:01:05;13.07;;;4.77;;
64595;SDS011;51003;51.628;6.670;2023-07-31T05:03:31;16.10;;;4.43;;
64595;SDS011;51003;51.628;6.670;2023-07-31T05:05:57;9.20;;;4.50;;
64595;SDS011;51003;51.628;6.670;2023-07-31T05:08:22;6.17;;;4.17;;
64595;SDS011;51003;51.628;6.670;2023-07-31T05:10:48;7.60;;;4.20;;
64595;SDS011;51003;51.628;6.670;2023-07-31T05:13:14;11.07;;;4.23;;
64595;SDS011;51003;51.628;6.670;2023-07-31T05:15:40;10.77;;;4.80;;
64595;SDS011;51003;51.628;6.670;2023-07-31T05:18:06;8.23;;;4.00;;
64595;SDS011;51003;51.628;6.670;2023-07-31T05:20:32;10.17;;;4.27;;
64595;SDS011;51003;51.628;6.670;2023-07-31T05:22:57;11.83;;;4.90;;
64595;SDS011;51003;51.628;6.670;2023-07-31T05:25:23;8.93;;;4.40;;
64595;SDS011;51003;51.628;6.670;2023-07-31T05:27:49;10.20;;;4.43;;
64595;SDS011;51003;51.628;6.670;2023-07-31T05:30:15;18.83;;;4.57;;
64595;SDS011;51003;51.628;6.670;2023-07-31T05:32:41;8.53;;;4.20;;
64595;SDS011;51003;51.628;6.670;2023-07-31T05:35:06;8.30;;;4.10;;
64595;SDS011;51003;51.628;6.670;2023-07-31T05:37:32;8.93;;;3.87;;
64595;SDS011;51003;51.628;6.670;2023-07-31T05:39:58;9.97;;;4.50;;
64595;SDS011;51003;51.628;6.670;2023-07-31T05:42:26;8.17;;;4.27;;
64595;SDS011;51003;51.628;6.670;2023-07-31T05:44:52;9.37;;;4.40;;
64595;SDS011;51003;51.628;6.670;2023-07-31T05:47:17;7.27;;;4.20;;
64595;SDS011;51003;51.628;6.670;2023-07-31T05:49:43;9.40;;;4.40;;
64595;SDS011;51003;51.628;6.670;2023-07-31T05:52:09;9.50;;;4.50;;
64595;SDS011;51003;51.628;6.670;2023-07-31T05:54:34;10.63;;;4.37;;
64595;SDS011;51003;51.628;6.670;2023-07-31T05:57:00;8.03;;;3.90;;
64595;SDS011;51003;51.628;6.670;2023-07-31T05:59:26;7.27;;;4.23;;
64595;SDS011;51003;51.628;6.670;2023-07-31T06:01:52;6.73;;;4.00;;
64595;SDS011;51003;51.628;6.670;2023-07-31T06:04:17;7.43;;;4.13;;
64595;SDS011;51003;51.628;6.670;2023-07-31T06:06:43;8.63;;;4.27;;
64595;SDS011;51003;51.628;6.670;2023-07-31T06:09:09;10.83;;;4.50;;
64595;SDS011;51003;51.628;6.670;2023-07-31T06:11:35;7.23;;;4.37;;
64595;SDS011;51003;51.628;6.670;2023-07-31T06:14:00;8.83;;;4.40;;
64595;SDS011;51003;51.628;6.670;2023-07-31T06:16:26;8.27;;;4.47;;
64595;SDS011;51003;51.628;6.670;2023-07-31T06:18:52;11.30;;;4.00;;
64595;SDS011;51003;51.628;6.670;2023-07-31T06:21:18;8.80;;;4.70;;
64595;SDS011;51003;51.628;6.670;2023-07-31T09:27:46;6.77;;;4.93;;
64595;SDS011;51003;51.628;6.670;2023-07-31T11:29:15;8.47;;;4.63;;
64595;SDS011;51003;51.628;6.670;2023-07-31T11:31:43;5.13;;;4.23;;
64595;SDS011;51003;51.628;6.670;2023-07-31T11:34:09;6.97;;;4.00;;
64595;SDS011;51003;51.628;6.670;2023-07-31T11:36:34;5.77;;;3.30;;
64595;SDS011;51003;51.628;6.670;2023-07-31T11:39:07;5.90;;;3.70;;
64595;SDS011;51003;51.628;6.670;2023-07-31T11:41:33;5.00;;;3.57;;
64595;SDS011;51003;51.628;6.670;2023-07-31T11:43:59;3.50;;;3.20;;
64595;SDS011;51003;51.628;6.670;2023-07-31T11:46:25;3.50;;;3.20;;
64595;SDS011;51003;51.628;6.670;2023-07-31T11:48:51;3.60;;;3.30;;
64595;SDS011;51003;51.628;6.670;2023-07-31T14:11:17;10.37;;;4.20;;
64595;SDS011;51003;51.628;6.670;2023-07-31T14:13:43;5.10;;;3.73;;
64595;SDS011;51003;51.628;6.670;2023-07-31T14:16:08;4.80;;;4.30;;
64595;SDS011;51003;51.628;6.670;2023-07-31T14:18:34;6.77;;;4.13;;
64595;SDS011;51003;51.628;6.670;2023-07-31T14:20:59;5.47;;;4.43;;
64595;SDS011;51003;51.628;6.670;2023-07-31T14:23:24;6.17;;;3.83;;
64595;SDS011;51003;51.628;6.670;2023-07-31T14:25:50;4.67;;;4.10;;
64595;SDS011;51003;51.628;6.670;2023-07-31T14:28:15;5.10;;;3.90;;
64595;SDS011;51003;51.628;6.670;2023-07-31T14:30:40;4.20;;;3.80;;
64595;SDS011;51003;51.628;6.670;2023-07-31T14:33:06;4.57;;;3.77;;
64595;SDS011;51003;51.628;6.670;2023-07-31T14:35:31;5.70;;;3.40;;
64595;SDS011;51003;51.628;6.670;2023-07-31T14:37:57;4.60;;;4.10;;
64595;SDS011;51003;51.628;6.670;2023-07-31T14:40:22;5.30;;;3.63;;
64595;SDS011;51003;51.628;6.670;2023-07-31T14:42:47;9.40;;;3.90;;
64595;SDS011;51003;51.628;6.670;2023-07-31T14:45:13;5.30;;;4.37;;
